EST,Max TemperatureF,Mean TemperatureF,Min TemperatureF,Max Dew PointF,MeanDew PointF,Min DewpointF,Max Humidity, Mean Humidity, Min Humidity, Max Sea Level PressureIn, Mean Sea Level PressureIn, Min Sea Level PressureIn, Max VisibilityMiles, Mean VisibilityMiles, Min VisibilityMiles, Max Wind SpeedMPH, Mean Wind SpeedMPH, Max Gust SpeedMPH,PrecipitationIn, CloudCover, Events, WindDirDegrees
2013-1-1,37,34,28,29,26,17,78,69,57,30.04,29.96,29.90,10,10,9,12,7,16,0.00,6,,298
2013-1-2,30,26,23,17,14,13,72,60,47,30.23,30.11,30.01,10,10,10,16,8,23,0.00,0,,309
2013-1-3,33,26,19,19,15,12,75,63,50,30.24,30.18,30.13,10,10,8,12,5,17,0.00,1,,271
2013-1-4,37,34,30,21,19,18,64,58,47,30.16,30.10,30.04,10,10,8,23,12,29,0.00,4,,271
2013-1-5,37,32,27,24,19,17,81,64,50,30.36,30.26,30.11,10,8,4,14,7,23,0.00,0,,315
2013-1-6,45,34,24,30,26,21,100,76,46,30.19,30.11,30.01,10,5,0,18,3,,0.00,6,Fog-Snow,250
2013-1-7,43,35,27,28,25,21,81,65,49,30.43,30.33,30.13,10,9,4,15,7,,0.00,5,,285
2013-1-8,46,34,21,30,25,19,93,74,53,30.41,30.39,30.37,7,5,2,6,2,,0.00,0,,120
2013-1-9,44,32,21,36,28,19,93,85,68,30.38,30.32,30.21,5,3,2,7,1,,0.01,2,Rain,248
2013-1-10,46,38,30,28,26,23,89,62,46,30.57,30.50,30.36,10,10,7,12,6,17,0.00,0,,296
2013-1-11,44,37,30,40,36,26,97,87,71,30.51,30.24,30.09,10,4,1,8,2,,0.38,7,Rain,92
2013-1-12,50,44,39,45,41,38,100,93,80,30.17,30.13,30.09,4,1,0,6,2,,0.00,4,Fog,18
2013-1-13,46,42,39,45,43,39,100,97,93,30.13,30.06,29.99,1,0,0,8,3,,0.02,8,Fog,119
2013-1-14,51,45,39,48,42,31,100,85,50,30.30,30.11,29.96,10,4,0,13,5,,0.19,8,Fog-Rain,303
2013-1-15,39,36,33,37,30,25,93,77,62,30.36,30.28,30.19,10,8,3,12,5,,0.28,8,Rain,33
2013-1-16,36,34,32,34,31,29,93,90,85,30.17,30.02,29.90,5,3,2,9,5,,0.33,8,Rain,32
2013-1-17,39,36,34,34,28,26,93,73,60,30.13,30.07,29.99,10,8,5,14,7,21,0.00,1,,297
2013-1-18,34,30,25,25,12,7,72,50,38,30.48,30.36,30.06,10,10,8,21,10,28,0.00,1,,291
2013-1-19,52,40,27,26,22,10,66,52,34,30.39,30.17,29.91,10,10,10,13,5,18,0.00,0,,196
2013-1-20,53,40,28,28,19,11,57,45,27,30.09,29.90,29.78,10,10,10,32,11,40,0.00,0,,277
2013-1-21,32,26,21,21,13,9,78,57,47,30.12,30.00,29.87,10,10,5,15,8,,0.00,5,Snow,290
2013-1-22,21,16,12,10,-4,-6,63,42,33,30.29,30.14,29.94,10,10,10,24,18,30,0.00,2,,300
2013-1-23,19,14,9,4,-2,-3,70,51,38,30.31,30.24,30.18,10,10,10,17,9,25,0.00,3,,281
2013-1-24,24,18,12,6,2,-4,71,51,29,30.49,30.32,30.13,10,10,8,21,6,28,0.00,4,,319
2013-1-25,19,14,10,14,7,-1,92,73,42,30.50,30.22,30.06,10,4,0,8,4,,0.03,5,Fog-Snow,183
2013-1-26,25,18,12,13,11,7,92,74,53,30.42,30.22,30.07,10,7,2,10,3,,0.00,5,Snow,309
2013-1-27,32,20,8,16,11,3,85,69,48,30.58,30.52,30.45,10,7,2,10,3,,0.00,0,,285
2013-1-28,34,29,24,33,28,18,96,88,75,30.48,30.21,30.04,4,2,0,8,2,,0.20,8,Fog-Rain-Snow,175
2013-1-29,55,44,33,48,39,32,100,88,72,30.13,30.06,30.00,7,3,1,8,2,,0.00,5,,103
2013-1-30,64,52,39,56,49,37,100,93,75,29.97,29.65,29.28,10,2,0,20,7,39,1.63,7,Fog-Rain,132
2013-1-31,55,42,28,55,33,9,100,68,41,29.85,29.41,29.12,10,7,0,33,14,46,0.92,7,Fog-Rain,254